Time;durP1;ratioP1;P1;durP2;ratioP2;P2;SDS_P1;SDS_P2;PMS_P1;PMS_P2;Temp;Humidity;BMP_temperature;BMP_pressure;BME280_temperature;BME280_humidity;BME280_pressure;Samples;Min_cycle;Max_cycle;Signal;HPM_P1;HPM_P2
2023/09/08 00:00:50;;;;;;;;;;;;;;;17.49;100.00;96737.25;5108255;28;19953;-72
2023/09/08 00:03:16;;;;;;;;;;;;;;;17.46;100.00;96740.41;5108181;28;19960;-72
2023/09/08 00:05:41;;;;;;;;;;;;;;;17.42;100.00;96740.09;5108220;28;19954;-72
2023/09/08 00:08:07;;;;;;;;;;;;;;;17.40;100.00;96733.47;5108140;28;19965;-71
2023/09/08 00:10:33;;;;;;;;;;;;;;;17.37;100.00;96736.63;5108169;28;19975;-71
2023/09/08 00:12:59;;;;;;;;;;;;;;;17.34;100.00;96732.63;5108296;28;20241;-72
2023/09/08 00:15:25;;;;;;;;;;;;;;;17.31;100.00;96749.03;5108181;28;19963;-71
2023/09/08 00:17:50;;;;;;;;;;;;;;;17.28;100.00;96735.50;5108172;28;20015;-69
2023/09/08 00:20:16;;;;;;;;;;;;;;;17.25;100.00;96731.50;5089943;28;19956;-70
2023/09/08 00:22:42;;;;;;;;;;;;;;;17.21;100.00;96733.06;5107535;28;20004;-71
2023/09/08 00:25:08;;;;;;;;;;;;;;;17.18;100.00;96736.22;5107882;28;19962;-70
2023/09/08 00:27:34;;;;;;;;;;;;;;;17.15;100.00;96726.13;5108144;28;19966;-70
2023/09/08 00:30:01;;;;;;;;;;;;;;;17.11;100.00;96728.47;5107985;28;20200;-70
2023/09/08 00:32:29;;;;;;;;;;;;;;;17.08;100.00;96718.38;5107915;28;20335;-70
2023/09/08 00:34:55;;;;;;;;;;;;;;;17.07;100.00;96724.72;5107461;28;19981;-81
2023/09/08 00:37:21;;;;;;;;;;;;;;;17.06;100.00;96722.34;5107653;28;20265;-72
2023/09/08 00:39:47;;;;;;;;;;;;;;;17.03;100.00;96723.66;5107777;28;19955;-82
2023/09/08 00:42:12;;;;;;;;;;;;;;;17.02;100.00;96719.38;5072744;28;19959;-82
2023/09/08 00:44:39;;;;;;;;;;;;;;;16.99;100.00;96714.59;5107636;28;20112;-83
2023/09/08 00:47:05;;;;;;;;;;;;;;;16.98;100.00;96715.63;5106409;28;19951;-82
2023/09/08 00:49:31;;;;;;;;;;;;;;;16.96;100.00;96715.09;5107676;28;19955;-81
2023/09/08 00:51:56;;;;;;;;;;;;;;;16.93;100.00;96716.41;5107518;28;19972;-82
2023/09/08 00:54:22;;;;;;;;;;;;;;;16.89;100.00;96712.66;5107027;28;19940;-70
2023/09/08 00:56:49;;;;;;;;;;;;;;;16.88;100.00;96721.63;5107027;28;20000;-82
2023/09/08 00:59:15;;;;;;;;;;;;;;;16.84;100.00;96715.28;5089648;28;19956;-83
2023/09/08 01:01:41;;;;;;;;;;;;;;;16.81;100.00;96719.19;5107512;28;19961;-82
2023/09/08 01:04:07;;;;;;;;;;;;;;;16.78;100.00;96714.38;5107196;28;19953;-81
2023/09/08 01:06:33;;;;;;;;;;;;;;;16.74;100.00;96718.59;5107462;28;19949;-82
2023/09/08 01:08:59;;;;;;;;;;;;;;;16.71;100.00;96724.34;5106892;28;19958;-83
2023/09/08 01:11:25;;;;;;;;;;;;;;;16.66;100.00;96716.38;5106641;28;19952;-78
2023/09/08 01:13:51;;;;;;;;;;;;;;;16.65;100.00;96722.72;5089028;28;19954;-69
2023/09/08 01:16:17;;;;;;;;;;;;;;;16.61;100.00;96717.13;5107100;28;19960;-70
2023/09/08 01:18:43;;;;;;;;;;;;;;;16.59;100.00;96718.44;5088942;28;19960;-70
2023/09/08 01:21:17;;;;;;;;;;;;;;;16.55;100.00;96714.69;5107042;28;20114;-70
2023/09/08 01:24:01;;;;;;;;;;;;;;;16.52;100.00;96715.16;5106968;28;19944;-70
2023/09/08 01:26:31;;;;;;;;;;;;;;;16.50;100.00;96712.75;5106913;28;19967;-70
2023/09/08 01:28:58;;;;;;;;;;;;;;;16.46;100.00;96711.66;5106491;28;19963;-69
2023/09/08 01:31:24;;;;;;;;;;;;;;;16.44;100.00;96711.94;5106277;28;19956;-72
2023/09/08 01:33:50;;;;;;;;;;;;;;;16.42;100.00;96708.72;5106464;28;19949;-82
2023/09/08 01:36:16;;;;;;;;;;;;;;;16.38;100.00;96707.63;5106558;28;19967;-81
2023/09/08 01:38:42;;;;;;;;;;;;;;;16.36;100.00;96711.56;5106716;28;19950;-82
2023/09/08 01:41:09;;;;;;;;;;;;;;;16.33;100.00;96712.06;5106083;28;19956;-81
2023/09/08 01:43:35;;;;;;;;;;;;;;;16.29;100.00;96705.66;5106612;28;19963;-81
2023/09/08 01:46:00;;;;;;;;;;;;;;;16.26;100.00;96709.59;5106483;28;19953;-81
2023/09/08 01:48:27;;;;;;;;;;;;;;;16.24;100.00;96711.69;5106717;28;19952;-71
2023/09/08 01:50:53;;;;;;;;;;;;;;;16.21;100.00;96714.81;5106650;28;19957;-72
2023/09/08 01:53:18;;;;;;;;;;;;;;;16.18;100.00;96716.13;5106059;28;20238;-78
2023/09/08 01:55:45;;;;;;;;;;;;;;;16.15;100.00;96713.19;5105963;28;19954;-78
2023/09/08 01:58:11;;;;;;;;;;;;;;;16.12;100.00;96713.66;5105748;28;19957;-78
2023/09/08 02:00:36;;;;;;;;;;;;;;;16.10;100.00;96705.19;5105704;28;19958;-78
2023/09/08 02:03:02;;;;;;;;;;;;;;;16.07;100.00;96708.31;5106202;28;20235;-78
2023/09/08 02:05:28;;;;;;;;;;;;;;;16.05;100.00;96707.78;5106170;28;20207;-78
2023/09/08 02:07:55;;;;;;;;;;;;;;;16.00;100.00;96704.03;5106060;28;19989;-82
2023/09/08 02:10:21;;;;;;;;;;;;;;;15.97;100.00;96701.84;5087741;28;19953;-75
2023/09/08 02:12:47;;;;;;;;;;;;;;;15.97;100.00;96698.41;5106003;28;19964;-76
2023/09/08 02:15:13;;;;;;;;;;;;;;;15.94;100.00;96701.56;5087805;28;19957;-76
2023/09/08 02:17:39;;;;;;;;;;;;;;;15.91;100.00;96700.19;5105418;28;19941;-77
2023/09/08 02:20:05;;;;;;;;;;;;;;;15.87;100.00;96703.56;5105884;28;20011;-75
2023/09/08 02:22:31;;;;;;;;;;;;;;;15.82;100.00;96691.88;5105876;28;20122;-75
2023/09/08 02:24:58;;;;;;;;;;;;;;;15.80;100.00;96695.81;5105961;28;19957;-81
2023/09/08 02:27:23;;;;;;;;;;;;;;;15.80;100.00;96695.81;5105293;28;19976;-70
2023/09/08 02:29:49;;;;;;;;;;;;;;;15.78;100.00;96696.06;5105468;28;20228;-71
2023/09/08 02:32:15;;;;;;;;;;;;;;;15.78;100.00;96695.25;5105405;28;19952;-71
2023/09/08 02:34:42;;;;;;;;;;;;;;;15.74;100.00;96694.94;5105574;28;19967;-72
2023/09/08 02:37:08;;;;;;;;;;;;;;;15.72;100.00;96693.59;5105415;28;20266;-71
2023/09/08 02:39:34;;;;;;;;;;;;;;;15.71;100.00;96699.91;5105494;28;20011;-71
2023/09/08 02:42:00;;;;;;;;;;;;;;;15.71;100.00;96700.69;5105438;28;19959;-72
2023/09/08 02:44:26;;;;;;;;;;;;;;;15.68;100.00;96698.53;5105428;28;19993;-69
2023/09/08 02:46:52;;;;;;;;;;;;;;;15.67;100.00;96704.09;5105612;28;19942;-75
2023/09/08 02:49:18;;;;;;;;;;;;;;;15.63;100.00;96699.28;5104854;28;19976;-75
2023/09/08 02:51:44;;;;;;;;;;;;;;;15.62;100.00;96699.50;5105078;28;19954;-75
2023/09/08 02:54:10;;;;;;;;;;;;;;;15.59;100.00;96692.88;5105509;28;19957;-75
2023/09/08 02:56:35;;;;;;;;;;;;;;;15.59;100.00;96689.44;5104693;28;20150;-75
2023/09/08 02:59:01;;;;;;;;;;;;;;;15.58;100.00;96693.91;5087196;28;20031;-76
2023/09/08 03:01:27;;;;;;;;;;;;;;;15.57;100.00;96687.03;5104930;28;19953;-75
2023/09/08 03:03:53;;;;;;;;;;;;;;;15.57;100.00;96688.88;5105277;28;19953;-69
2023/09/08 03:06:22;;;;;;;;;;;;;;;15.56;100.00;96693.38;5105155;28;20025;-75
2023/09/08 03:08:48;;;;;;;;;;;;;;;15.55;100.00;96699.69;5104891;28;19962;-75
2023/09/08 03:11:14;;;;;;;;;;;;;;;15.51;100.00;96682.69;5104411;28;20284;-75
2023/09/08 03:13:40;;;;;;;;;;;;;;;15.48;100.00;96683.22;5105040;28;20144;-76
2023/09/08 03:16:07;;;;;;;;;;;;;;;15.45;100.00;96688.97;5105000;28;19937;-75
2023/09/08 03:18:33;;;;;;;;;;;;;;;15.45;100.00;96696.09;5104958;28;19973;-75
2023/09/08 03:21:00;;;;;;;;;;;;;;;15.41;100.00;96688.66;5104938;28;19991;-69
2023/09/08 03:23:26;;;;;;;;;;;;;;;15.39;100.00;96689.94;5104976;28;19957;-72
2023/09/08 03:25:52;;;;;;;;;;;;;;;15.37;100.00;96692.00;5104560;28;20024;-71
2023/09/08 03:28:17;;;;;;;;;;;;;;;15.35;100.00;96694.91;5104524;28;20139;-71
2023/09/08 03:30:43;;;;;;;;;;;;;;;15.33;100.00;96685.59;5086386;28;20293;-72
2023/09/08 03:33:09;;;;;;;;;;;;;;;15.30;100.00;96692.19;5104558;28;20003;-71
2023/09/08 03:35:35;;;;;;;;;;;;;;;15.28;100.00;96696.13;5104786;28;20021;-72
2023/09/08 03:38:01;;;;;;;;;;;;;;;15.24;100.00;96693.16;5104648;28;19981;-71
2023/09/08 03:40:27;;;;;;;;;;;;;;;15.19;100.00;96685.94;5104720;28;19950;-73
2023/09/08 03:42:52;;;;;;;;;;;;;;;15.19;100.00;96685.16;5086599;28;19958;-75
2023/09/08 03:45:18;;;;;;;;;;;;;;;15.17;100.00;96692.53;5104665;28;19953;-75
2023/09/08 03:47:44;;;;;;;;;;;;;;;15.15;100.00;96684.81;5104161;28;20008;-75
2023/09/08 03:50:10;;;;;;;;;;;;;;;15.12;100.00;96687.13;5104313;28;19956;-75
2023/09/08 03:52:36;;;;;;;;;;;;;;;15.09;100.00;96688.44;5104229;28;20270;-75
2023/09/08 03:55:02;;;;;;;;;;;;;;;15.09;100.00;96687.63;5104410;28;19961;-75
2023/09/08 03:57:28;;;;;;;;;;;;;;;15.06;100.00;96696.84;5104326;28;20017;-78
2023/09/08 03:59:53;;;;;;;;;;;;;;;15.04;100.00;96695.50;5086639;28;20145;-75
2023/09/08 04:02:19;;;;;;;;;;;;;;;14.99;100.00;96690.91;5104310;28;20221;-75
2023/09/08 04:04:45;;;;;;;;;;;;;;;14.96;100.00;96701.97;5104338;28;19958;-75
2023/09/08 04:07:11;;;;;;;;;;;;;;;14.95;100.00;96698.53;5104617;28;20288;-75
2023/09/08 04:09:37;;;;;;;;;;;;;;;14.92;100.00;96700.84;5104363;28;19962;-75
2023/09/08 04:12:03;;;;;;;;;;;;;;;14.91;100.00;96704.50;5104519;28;19953;-75
2023/09/08 04:14:30;;;;;;;;;;;;;;;14.88;100.00;96705.78;5086024;28;19958;-75
2023/09/08 04:16:56;;;;;;;;;;;;;;;14.85;100.00;96705.47;5103911;28;20246;-74
2023/09/08 04:19:21;;;;;;;;;;;;;;;14.82;100.00;96704.91;5103856;28;19959;-86
2023/09/08 04:21:47;;;;;;;;;;;;;;;14.79;100.00;96700.09;5105390;28;19955;-85
2023/09/08 04:24:13;;;;;;;;;;;;;;;14.80;100.00;96700.91;5108169;28;19951;-85
2023/09/08 04:26:39;;;;;;;;;;;;;;;14.81;100.00;96700.66;5107738;28;19958;-86
2023/09/08 04:29:05;;;;;;;;;;;;;;;14.80;100.00;96698.25;5107995;28;19969;-85
2023/09/08 04:31:30;;;;;;;;;;;;;;;14.78;100.00;96706.44;5107788;28;20222;-85
2023/09/08 04:33:56;;;;;;;;;;;;;;;14.76;100.00;96705.03;5107975;28;19961;-69
2023/09/08 04:36:23;;;;;;;;;;;;;;;14.75;100.00;96703.47;5089714;28;19953;-72
2023/09/08 04:38:48;;;;;;;;;;;;;;;14.72;100.00;96707.38;5089541;28;19964;-84
2023/09/08 04:41:14;;;;;;;;;;;;;;;14.70;100.00;96712.09;5107802;28;19967;-84
2023/09/08 04:43:40;;;;;;;;;;;;;;;14.66;100.00;96716.25;5107815;28;19961;-84
2023/09/08 04:46:06;;;;;;;;;;;;;;;14.66;100.00;96721.53;5107668;28;19953;-83
2023/09/08 04:48:32;;;;;;;;;;;;;;;14.64;100.00;96720.97;5107581;28;19990;-84
2023/09/08 04:50:57;;;;;;;;;;;;;;;14.63;100.00;96721.97;5107218;28;20104;-83
2023/09/08 04:53:23;;;;;;;;;;;;;;;14.60;100.00;96728.53;5107813;28;19958;-70
2023/09/08 04:55:49;;;;;;;;;;;;;;;14.59;100.00;96718.22;5107529;28;19955;-72
2023/09/08 04:58:15;;;;;;;;;;;;;;;14.60;100.00;96723.25;5107233;28;19961;-72
2023/09/08 05:00:41;;;;;;;;;;;;;;;14.61;100.00;96721.41;5107182;28;19962;-72
2023/09/08 05:03:07;;;;;;;;;;;;;;;14.60;100.00;96717.97;5107183;28;19950;-72
2023/09/08 05:05:32;;;;;;;;;;;;;;;14.61;100.00;96719.59;5107225;28;19996;-72
2023/09/08 05:07:58;;;;;;;;;;;;;;;14.61;100.00;96716.13;5107319;28;20187;-73
2023/09/08 05:10:24;;;;;;;;;;;;;;;14.63;100.00;96715.91;5107275;28;20022;-72
2023/09/08 05:12:51;;;;;;;;;;;;;;;14.66;100.00;96720.69;5107236;28;19950;-72
2023/09/08 05:15:17;;;;;;;;;;;;;;;14.67;100.00;96717.03;5107158;28;20112;-79
2023/09/08 05:17:43;;;;;;;;;;;;;;;14.69;100.00;96721.03;5106539;28;19949;-81
2023/09/08 05:20:09;;;;;;;;;;;;;;;14.73;100.00;96724.00;5107066;28;19960;-80
2023/09/08 05:22:36;;;;;;;;;;;;;;;14.75;100.00;96724.56;5107185;28;19956;-81
2023/09/08 05:25:02;;;;;;;;;;;;;;;14.82;100.00;96722.56;5106589;28;19963;-80
2023/09/08 05:27:28;;;;;;;;;;;;;;;15.06;100.00;96739.09;5106713;28;19958;-80
2023/09/08 05:29:54;;;;;;;;;;;;;;;15.39;100.00;96719.81;5106914;28;20342;-69
2023/09/08 05:32:20;;;;;;;;;;;;;;;15.78;100.00;96721.72;5106663;28;19953;-72
2023/09/08 05:34:45;;;;;;;;;;;;;;;16.15;100.00;96715.84;5105972;28;19960;-73
2023/09/08 05:37:11;;;;;;;;;;;;;;;16.51;100.00;96714.38;5106892;28;19959;-72
2023/09/08 05:39:37;;;;;;;;;;;;;;;16.84;100.00;96721.38;5106769;28;19957;-71
2023/09/08 05:42:03;;;;;;;;;;;;;;;17.16;100.00;96723.22;5106632;28;19952;-72
2023/09/08 05:44:29;;;;;;;;;;;;;;;17.45;100.00;96715.75;5106604;28;20030;-72
2023/09/08 05:46:55;;;;;;;;;;;;;;;17.74;100.00;96706.63;5106033;28;19945;-72
2023/09/08 05:49:20;;;;;;;;;;;;;;;18.00;100.00;96705.72;5088793;28;19971;-72
2023/09/08 05:51:46;;;;;;;;;;;;;;;18.25;100.00;96699.72;5106014;28;19988;-72
2023/09/08 05:54:12;;;;;;;;;;;;;;;18.50;100.00;96692.09;5106681;28;19965;-72
2023/09/08 05:56:38;;;;;;;;;;;;;;;18.72;100.00;96690.00;5106055;28;19949;-72
2023/09/08 05:59:04;;;;;;;;;;;;;;;18.92;99.83;96681.31;5106049;28;20008;-72
2023/09/08 06:01:31;;;;;;;;;;;;;;;19.11;99.06;96680.75;5106066;28;19955;-72
2023/09/08 06:03:56;;;;;;;;;;;;;;;19.26;98.40;96678.09;5106008;28;19957;-72
2023/09/08 06:06:22;;;;;;;;;;;;;;;19.39;97.39;96674.88;5106344;28;19963;-82
2023/09/08 06:08:48;;;;;;;;;;;;;;;19.48;96.79;96672.47;5105553;28;19965;-76
2023/09/08 06:11:14;;;;;;;;;;;;;;;19.57;96.50;96672.69;5106208;28;19960;-76
2023/09/08 06:13:40;;;;;;;;;;;;;;;19.61;95.61;96666.59;5106119;28;20020;-76
2023/09/08 06:16:06;;;;;;;;;;;;;;;19.59;95.36;96667.91;5105977;28;19960;-76
2023/09/08 06:18:32;;;;;;;;;;;;;;;19.57;95.25;96676.19;5106229;28;19959;-76
2023/09/08 06:20:57;;;;;;;;;;;;;;;19.58;95.68;96666.34;5105501;28;19956;-76
2023/09/08 06:23:24;;;;;;;;;;;;;;;19.56;95.66;96679.91;5105434;28;19953;-76
2023/09/08 06:25:49;;;;;;;;;;;;;;;19.56;95.78;96684.44;5105553;28;19980;-80
2023/09/08 06:28:15;;;;;;;;;;;;;;;19.53;95.44;96679.63;5105751;28;20224;-81
2023/09/08 06:30:41;;;;;;;;;;;;;;;19.47;96.16;96681.53;5105479;28;20146;-81
2023/09/08 06:33:08;;;;;;;;;;;;;;;19.43;97.04;96689.22;5105452;28;19961;-81
2023/09/08 06:35:34;;;;;;;;;;;;;;;19.40;97.00;96692.44;5105423;28;19969;-81
2023/09/08 06:38:00;;;;;;;;;;;;;;;19.37;98.09;96694.84;5105288;28;19958;-81
2023/09/08 06:40:25;;;;;;;;;;;;;;;19.44;97.60;96690.03;5105542;28;20021;-81
2023/09/08 06:42:51;;;;;;;;;;;;;;;19.43;97.66;96691.09;5105490;28;19959;-78
2023/09/08 06:45:18;;;;;;;;;;;;;;;19.38;98.75;96691.91;5104646;28;19995;-78
2023/09/08 06:47:43;;;;;;;;;;;;;;;19.34;100.00;96695.34;5104934;28;20111;-82
2023/09/08 06:50:09;;;;;;;;;;;;;;;19.41;99.10;96691.38;5105139;28;19967;-81
2023/09/08 06:52:35;;;;;;;;;;;;;;;19.48;98.40;96694.53;5070706;28;19990;-82
2023/09/08 06:55:01;;;;;;;;;;;;;;;19.63;99.19;96699.06;5105504;28;19996;-82
2023/09/08 06:57:27;;;;;;;;;;;;;;;19.76;98.42;96694.25;5105059;28;19954;-81
2023/09/08 06:59:53;;;;;;;;;;;;;;;19.84;98.19;96699.00;5104913;28;19968;-82
2023/09/08 07:02:19;;;;;;;;;;;;;;;19.90;98.76;96689.16;5105230;28;19951;-73
2023/09/08 07:04:44;;;;;;;;;;;;;;;19.97;97.28;96686.97;5086918;28;20027;-72
2023/09/08 07:07:10;;;;;;;;;;;;;;;20.01;97.78;96690.69;5104988;28;19971;-72
2023/09/08 07:09:36;;;;;;;;;;;;;;;20.14;98.35;96686.66;5104890;28;20266;-72
2023/09/08 07:12:03;;;;;;;;;;;;;;;20.13;96.64;96685.06;5105082;28;19954;-72
2023/09/08 07:14:29;;;;;;;;;;;;;;;20.06;98.00;96688.81;5105101;28;19960;-72
2023/09/08 07:16:55;;;;;;;;;;;;;;;20.03;98.30;96692.03;5086818;28;19958;-72
2023/09/08 07:19:21;;;;;;;;;;;;;;;20.01;98.79;96691.50;5104562;28;20012;-69
2023/09/08 07:21:47;;;;;;;;;;;;;;;19.96;99.81;96704.81;5105354;28;19955;-73
2023/09/08 07:24:13;;;;;;;;;;;;;;;20.00;100.00;96703.22;5104544;28;19965;-72
2023/09/08 07:26:38;;;;;;;;;;;;;;;20.12;99.77;96702.13;5104574;28;19971;-72
2023/09/08 07:29:04;;;;;;;;;;;;;;;20.22;99.39;96691.41;5104893;28;20291;-73
2023/09/08 07:31:30;;;;;;;;;;;;;;;20.27;100.00;96702.84;5104626;28;19955;-73
2023/09/08 07:33:56;;;;;;;;;;;;;;;20.32;100.00;96693.25;5104147;28;19959;-72
2023/09/08 07:36:22;;;;;;;;;;;;;;;20.42;98.95;96691.31;5086759;28;20113;-73
2023/09/08 07:38:48;;;;;;;;;;;;;;;20.54;99.79;96693.66;5104731;28;19962;-73
2023/09/08 07:41:14;;;;;;;;;;;;;;;20.67;99.80;96690.41;5104700;28;19952;-79
2023/09/08 07:43:40;;;;;;;;;;;;;;;20.86;99.94;96697.75;5104742;28;19968;-78
2023/09/08 07:46:06;;;;;;;;;;;;;;;20.97;96.31;96674.47;5104765;28;20015;-78
2023/09/08 07:48:33;;;;;;;;;;;;;;;21.06;97.36;96686.09;5104681;28;20178;-79
2023/09/08 07:51:00;;;;;;;;;;;;;;;21.11;97.73;96686.09;5104677;28;19967;-80
2023/09/08 07:53:27;;;;;;;;;;;;;;;21.12;98.15;96687.66;5103611;28;20374;-79
2023/09/08 07:55:53;;;;;;;;;;;;;;;21.15;97.55;96689.00;5104347;28;19959;-80
2023/09/08 07:58:19;;;;;;;;;;;;;;;21.19;99.38;96698.81;5108465;28;19997;-81
2023/09/08 08:00:45;;;;;;;;;;;;;;;21.28;95.97;96680.34;5108402;28;19977;-76
2023/09/08 08:03:11;;;;;;;;;;;;;;;21.39;97.78;96686.38;5108684;28;19966;-76
2023/09/08 08:05:37;;;;;;;;;;;;;;;21.50;94.99;96679.88;5108659;28;19958;-75
2023/09/08 08:08:03;;;;;;;;;;;;;;;21.57;95.64;96675.03;5108481;28;19961;-76
2023/09/08 08:10:29;;;;;;;;;;;;;;;21.60;93.87;96669.09;5108394;28;20033;-76
2023/09/08 08:12:54;;;;;;;;;;;;;;;21.60;93.75;96670.97;5108371;28;19985;-76
2023/09/08 08:15:24;;;;;;;;;;;;;;;21.59;94.93;96680.88;5108349;28;20229;-78
2023/09/08 08:17:49;;;;;;;;;;;;;;;21.67;95.07;96677.59;5090464;28;19946;-72
2023/09/08 08:20:19;;;;;;;;;;;;;;;21.66;93.80;96667.19;5107808;28;19954;-72
2023/09/08 08:22:45;;;;;;;;;;;;;;;21.72;94.18;96678.59;5108059;28;19948;-73
2023/09/08 08:25:12;;;;;;;;;;;;;;;21.80;95.91;96681.44;5107817;28;20246;-72
2023/09/08 08:27:39;;;;;;;;;;;;;;;21.87;95.82;96683.78;5107848;28;20133;-73
2023/09/08 08:30:05;;;;;;;;;;;;;;;22.04;96.55;96688.66;5108551;28;19972;-73
2023/09/08 08:32:33;;;;;;;;;;;;;;;22.19;94.56;96674.31;5107864;28;20139;-73
2023/09/08 08:34:59;;;;;;;;;;;;;;;22.24;94.59;96677.75;5107773;28;19960;-72
2023/09/08 08:37:25;;;;;;;;;;;;;;;22.32;94.07;96670.16;5108726;28;19958;-81
2023/09/08 08:39:51;;;;;;;;;;;;;;;22.43;94.72;96675.09;5107965;28;19995;-81
2023/09/08 08:42:17;;;;;;;;;;;;;;;22.57;94.84;96679.69;5107832;28;19955;-81
2023/09/08 08:44:44;;;;;;;;;;;;;;;22.60;92.15;96658.53;5107340;28;19947;-80
2023/09/08 08:47:10;;;;;;;;;;;;;;;22.65;93.90;96669.16;5107327;28;19957;-81
2023/09/08 08:49:36;;;;;;;;;;;;;;;22.72;92.43;96649.28;5107644;28;20249;-81
2023/09/08 08:52:07;;;;;;;;;;;;;;;22.82;93.14;96657.94;5107238;28;20252;-81
2023/09/08 08:54:39;;;;;;;;;;;;;;;22.90;91.52;96648.47;5107379;28;19960;-71
2023/09/08 08:57:05;;;;;;;;;;;;;;;22.96;91.43;96641.16;5107231;28;19963;-72
2023/09/08 08:59:31;;;;;;;;;;;;;;;23.04;93.46;96656.56;5107511;28;19952;-72
2023/09/08 09:01:58;;;;;;;;;;;;;;;23.12;92.15;96639.84;5107258;28;19964;-72
2023/09/08 09:04:24;;;;;;;;;;;;;;;23.15;91.99;96643.81;5107498;28;19951;-72
2023/09/08 09:06:50;;;;;;;;;;;;;;;23.18;91.55;96640.53;5106927;28;20021;-73
2023/09/08 09:09:16;;;;;;;;;;;;;;;23.20;91.67;96644.50;5106221;28;19958;-72
2023/09/08 09:11:42;;;;;;;;;;;;;;;23.21;91.12;96640.75;5107318;28;19952;-78
2023/09/08 09:14:08;;;;;;;;;;;;;;;23.18;91.81;96644.03;5106868;28;19973;-72
2023/09/08 09:16:39;;;;;;;;;;;;;;;23.20;94.00;96660.56;5106810;28;19956;-72
2023/09/08 09:19:04;;;;;;;;;;;;;;;23.21;93.80;96661.38;5106726;28;19956;-72
2023/09/08 09:21:44;;;;;;;;;;;;;;;23.21;93.35;96654.13;5107257;28;19993;-72
2023/09/08 09:24:16;;;;;;;;;;;;;;;23.23;94.85;96669.91;5106831;28;19954;-72
2023/09/08 09:26:42;;;;;;;;;;;;;;;23.22;91.85;96652.25;5106878;28;19956;-72
2023/09/08 09:29:13;;;;;;;;;;;;;;;23.21;95.03;96672.06;5106953;28;19981;-71
2023/09/08 09:31:55;;;;;;;;;;;;;;;23.25;94.24;96670.41;5106925;28;20226;-72
2023/09/08 09:34:21;;;;;;;;;;;;;;;23.32;95.26;96665.44;5106346;28;20272;-72
2023/09/08 09:36:51;;;;;;;;;;;;;;;23.39;95.91;96663.19;5106362;28;19961;-72
2023/09/08 09:39:18;;;;;;;;;;;;;;;23.43;94.47;96653.47;5106592;28;19962;-72
2023/09/08 09:41:45;;;;;;;;;;;;;;;23.46;93.68;96650.19;5106903;28;19954;-72
2023/09/08 09:44:11;;;;;;;;;;;;;;;23.49;95.82;96659.53;5106321;28;19954;-73
2023/09/08 09:46:37;;;;;;;;;;;;;;;23.56;96.60;96661.81;5106737;28;19952;-76
2023/09/08 09:49:03;;;;;;;;;;;;;;;23.66;96.29;96669.66;5088194;28;19991;-81
2023/09/08 09:51:29;;;;;;;;;;;;;;;23.75;96.28;96656.34;5088449;28;19949;-76
2023/09/08 09:53:55;;;;;;;;;;;;;;;23.83;94.76;96651.16;5106111;28;19956;-76
2023/09/08 09:56:22;;;;;;;;;;;;;;;23.85;92.93;96643.59;5106396;28;20142;-76
2023/09/08 09:58:49;;;;;;;;;;;;;;;23.90;94.23;96646.19;5106883;28;19979;-77
2023/09/08 10:01:15;;;;;;;;;;;;;;;23.97;93.39;96639.63;5105811;28;19947;-76
2023/09/08 10:03:41;;;;;;;;;;;;;;;24.04;94.46;96654.22;5106281;28;19957;-77
2023/09/08 10:06:07;;;;;;;;;;;;;;;24.09;94.21;96635.34;5106254;28;19965;-69
2023/09/08 10:08:36;;;;;;;;;;;;;;;24.16;93.40;96634.13;5105868;28;19961;-69
2023/09/08 10:11:05;;;;;;;;;;;;;;;24.21;92.74;96631.34;5106178;28;19961;-70
2023/09/08 10:13:32;;;;;;;;;;;;;;;24.30;93.01;96632.22;5105578;28;19963;-69
2023/09/08 10:16:00;;;;;;;;;;;;;;;24.39;92.93;96632.31;5105785;28;19962;-69
2023/09/08 10:18:26;;;;;;;;;;;;;;;24.53;93.62;96635.78;5106007;28;20245;-69
2023/09/08 10:20:53;;;;;;;;;;;;;;;24.65;90.38;96613.75;5105713;28;19978;-70
2023/09/08 10:23:34;;;;;;;;;;;;;;;24.75;92.88;96624.25;5105865;28;19972;-72
2023/09/08 10:26:04;;;;;;;;;;;;;;;24.94;90.47;96615.22;5105341;28;19948;-73
2023/09/08 10:28:31;;;;;;;;;;;;;;;25.09;86.85;96583.44;5087864;28;19968;-73
2023/09/08 10:30:57;;;;;;;;;;;;;;;25.25;87.60;96586.53;5105884;28;19970;-73
2023/09/08 10:33:24;;;;;;;;;;;;;;;25.40;87.05;96579.94;5105918;28;19961;-73
2023/09/08 10:35:50;;;;;;;;;;;;;;;25.57;87.83;96584.59;5105764;28;19967;-74
2023/09/08 10:38:26;;;;;;;;;;;;;;;25.74;86.50;96578.47;5105342;28;19954;-73
2023/09/08 10:40:52;;;;;;;;;;;;;;;25.92;81.47;96545.19;5105418;28;19953;-73
2023/09/08 10:43:18;;;;;;;;;;;;;;;26.06;82.38;96553.13;5105028;28;19960;-72
2023/09/08 10:45:45;;;;;;;;;;;;;;;26.21;82.18;96551.88;5105504;28;19970;-79
2023/09/08 10:48:11;;;;;;;;;;;;;;;26.36;82.64;96552.50;5105459;28;19976;-80
2023/09/08 10:50:40;;;;;;;;;;;;;;;26.56;82.94;96561.78;5105349;28;20239;-80
2023/09/08 10:53:16;;;;;;;;;;;;;;;26.72;83.30;96557.53;5087450;28;19949;-80
2023/09/08 10:55:47;;;;;;;;;;;;;;;26.87;84.03;96567.78;5087501;28;19962;-79
2023/09/08 10:58:20;;;;;;;;;;;;;;;27.06;81.62;96556.66;5087285;28;20251;-80
2023/09/08 11:00:48;;;;;;;;;;;;;;;27.24;79.25;96553.94;5105025;28;19956;-80
2023/09/08 11:03:14;;;;;;;;;;;;;;;27.35;77.44;96544.38;5104934;28;20063;-72
2023/09/08 11:05:41;;;;;;;;;;;;;;;27.37;77.60;96579.06;5105035;28;19960;-71
2023/09/08 11:08:07;;;;;;;;;;;;;;;27.49;78.35;96584.56;5105083;28;19961;-72
2023/09/08 11:10:33;;;;;;;;;;;;;;;27.67;78.78;96594.13;5105056;28;19960;-72
2023/09/08 11:12:59;;;;;;;;;;;;;;;27.91;76.04;96580.06;5105177;28;19959;-72
2023/09/08 11:15:25;;;;;;;;;;;;;;;28.11;74.48;96575.81;5105147;28;19953;-73
2023/09/08 11:17:51;;;;;;;;;;;;;;;28.25;76.07;96585.56;5104549;28;19946;-72
2023/09/08 11:20:25;;;;;;;;;;;;;;;28.34;76.78;96595.13;5105267;28;19962;-72
2023/09/08 11:22:51;;;;;;;;;;;;;;;28.50;74.18;96594.59;5104459;28;20143;-81
2023/09/08 11:25:17;;;;;;;;;;;;;;;28.61;70.24;96579.56;5105127;28;19993;-80
2023/09/08 11:27:44;;;;;;;;;;;;;;;28.73;73.02;96593.09;5104639;28;20099;-80
2023/09/08 11:30:12;;;;;;;;;;;;;;;28.85;73.60;96594.25;5104602;28;20133;-80
2023/09/08 11:32:38;;;;;;;;;;;;;;;28.94;70.35;96589.56;5104118;28;19958;-80
2023/09/08 11:35:08;;;;;;;;;;;;;;;29.02;73.03;96594.09;5104673;28;20144;-81
2023/09/08 11:37:35;;;;;;;;;;;;;;;29.14;71.18;96593.34;5104846;28;19954;-71
2023/09/08 11:40:03;;;;;;;;;;;;;;;29.24;72.76;96592.91;5105001;28;19952;-72
2023/09/08 11:42:29;;;;;;;;;;;;;;;29.39;72.62;96599.56;5086536;28;20230;-72
2023/09/08 11:44:57;;;;;;;;;;;;;;;29.47;71.07;96593.28;5104706;28;20005;-72
2023/09/08 11:47:23;;;;;;;;;;;;;;;29.56;68.59;96587.75;5104233;28;19959;-72
2023/09/08 11:49:48;;;;;;;;;;;;;;;29.62;71.05;96602.63;5104796;28;20006;-72
2023/09/08 11:52:14;;;;;;;;;;;;;;;29.74;69.33;96589.13;5104673;28;19962;-72
2023/09/08 11:54:41;;;;;;;;;;;;;;;29.85;68.12;96589.47;5104592;28;19966;-72
2023/09/08 11:57:11;;;;;;;;;;;;;;;29.94;69.45;96597.44;5104335;28;19958;-70
2023/09/08 11:59:37;;;;;;;;;;;;;;;29.95;66.99;96593.63;5104700;28;20144;-70
2023/09/08 12:02:03;;;;;;;;;;;;;;;29.92;66.64;96595.09;5104576;28;20060;-70
2023/09/08 12:04:29;;;;;;;;;;;;;;;29.89;64.51;96594.97;5103950;28;20291;-71
2023/09/08 12:06:58;;;;;;;;;;;;;;;29.84;69.16;96603.31;5104453;28;19956;-70
2023/09/08 12:09:23;;;;;;;;;;;;;;;29.81;66.85;96604.00;5104394;28;19967;-69
2023/09/08 12:11:49;;;;;;;;;;;;;;;29.82;63.62;96597.44;5103974;28;19945;-70
2023/09/08 12:14:15;;;;;;;;;;;;;;;29.79;63.05;96587.34;5104668;28;20293;-70
2023/09/08 12:16:42;;;;;;;;;;;;;;;29.78;64.25;96597.38;5069825;28;19954;-78
2023/09/08 12:19:08;;;;;;;;;;;;;;;29.83;68.13;96601.75;5086400;28;19970;-80
2023/09/08 12:21:53;;;;;;;;;;;;;;;29.86;64.61;96593.75;5104088;28;19972;-80
2023/09/08 12:24:19;;;;;;;;;;;;;;;29.87;64.17;96589.13;5104026;28;19955;-80
2023/09/08 12:26:44;;;;;;;;;;;;;;;30.00;68.28;96603.41;5104434;28;20282;-80
2023/09/08 12:29:13;;;;;;;;;;;;;;;30.20;67.30;96594.38;5104125;28;20277;-81
2023/09/08 12:31:39;;;;;;;;;;;;;;;30.39;66.77;96582.19;5104285;28;19974;-80
2023/09/08 12:34:05;;;;;;;;;;;;;;;30.45;64.89;96578.88;5104262;28;20165;-70
2023/09/08 12:36:31;;;;;;;;;;;;;;;30.47;63.44;96571.22;5104246;28;20191;-80
2023/09/08 12:38:57;;;;;;;;;;;;;;;30.48;65.02;96583.59;5103766;28;19977;-81